createdAt,value
2019-05-17T00:04:01.229Z,21.57
2019-05-17T00:08:58.069Z,21.02
2019-05-17T00:13:53.595Z,20.52
2019-05-17T00:18:56.849Z,25.08
2019-05-17T00:23:50.451Z,20.37
2019-05-17T00:28:49.940Z,20.77
2019-05-17T00:33:43.689Z,22.30
2019-05-17T00:38:47.566Z,23.25
2019-05-17T00:43:32.468Z,22.17
2019-05-17T00:48:26.469Z,20.20
2019-05-17T00:53:20.465Z,23.40
2019-05-17T00:58:13.943Z,22.15
2019-05-17T01:03:07.708Z,29.32
2019-05-17T01:08:01.556Z,26.10
2019-05-17T01:12:57.398Z,25.65
2019-05-17T01:17:56.342Z,25.12
2019-05-17T01:22:51.100Z,20.35
2019-05-17T01:27:47.690Z,25.92
2019-05-17T01:32:41.541Z,27.85
2019-05-17T01:37:36.938Z,22.82
2019-05-17T01:42:31.116Z,19.17
2019-05-17T01:47:27.106Z,23.10
2019-05-17T01:52:20.919Z,20.00
2019-05-17T01:57:16.669Z,16.62
2019-05-17T02:02:11.523Z,23.67
2019-05-17T02:07:06.852Z,21.30
2019-05-17T02:12:00.576Z,25.00
2019-05-17T02:16:59.729Z,26.27
2019-05-17T02:21:53.489Z,27.73
2019-05-17T02:26:47.044Z,27.37
2019-05-17T02:31:43.933Z,27.20
2019-05-17T02:36:46.299Z,30.00
2019-05-17T02:46:47.633Z,33.03
2019-05-17T02:51:43.138Z,24.97
2019-05-17T02:56:36.796Z,29.10
2019-05-17T03:01:36.147Z,28.30
2019-05-17T03:06:32.585Z,32.13
2019-05-17T03:11:26.813Z,31.07
2019-05-17T03:16:23.387Z,29.85
2019-05-17T03:21:15.627Z,32.60
2019-05-17T03:26:12.735Z,30.23
2019-05-17T03:31:08.558Z,38.28
2019-05-17T03:36:05.833Z,32.00
2019-05-17T03:41:12.314Z,32.30
2019-05-17T03:45:53.333Z,32.63
2019-05-17T03:50:46.478Z,42.60
2019-05-17T03:55:42.813Z,37.88
2019-05-17T04:00:35.757Z,38.13
2019-05-17T04:05:29.393Z,40.83
2019-05-17T04:10:23.026Z,34.23
2019-05-17T04:15:16.742Z,43.55
2019-05-17T04:20:13.570Z,39.95
2019-05-17T04:25:06.010Z,44.18
2019-05-17T04:30:03.307Z,46.28
2019-05-17T04:34:55.909Z,47.17
2019-05-17T04:39:52.467Z,36.65
2019-05-17T04:44:45.718Z,42.20
2019-05-17T04:49:39.264Z,45.63
2019-05-17T04:54:33.520Z,45.03
2019-05-17T04:59:27.179Z,38.33
2019-05-17T05:04:22.668Z,43.02
2019-05-17T05:09:16.040Z,35.58
2019-05-17T05:14:12.545Z,44.42
2019-05-17T05:19:04.867Z,52.88
2019-05-17T05:23:58.432Z,43.23
2019-05-17T05:28:52.900Z,31.65
2019-05-17T05:33:46.872Z,37.88
2019-05-17T05:38:42.260Z,30.77
2019-05-17T05:43:35.589Z,41.20
2019-05-17T05:48:29.116Z,34.98
2019-05-17T05:53:22.600Z,29.23
2019-05-17T05:58:16.148Z,38.05
2019-05-17T06:03:11.943Z,37.83
2019-05-17T06:08:05.084Z,39.75
2019-05-17T06:12:58.563Z,43.20
2019-05-17T06:17:52.116Z,43.10
2019-05-17T06:22:45.601Z,38.70
2019-05-17T06:27:41.361Z,42.70
2019-05-17T06:32:34.564Z,35.53
2019-05-17T06:37:28.220Z,31.93
2019-05-17T06:42:36.966Z,35.35
2019-05-17T06:47:18.128Z,29.82
2019-05-17T06:52:11.723Z,34.88
2019-05-17T06:57:06.081Z,31.12
2019-05-17T07:01:59.908Z,32.08
2019-05-17T07:07:11.652Z,28.00
2019-05-17T07:12:05.239Z,30.08
2019-05-17T07:16:59.615Z,22.80
2019-05-17T07:21:53.234Z,20.32
2019-05-17T07:26:46.771Z,17.77
2019-05-17T07:31:40.600Z,17.60
2019-05-17T07:36:34.365Z,15.93
2019-05-17T07:41:29.755Z,15.28
2019-05-17T07:46:23.037Z,17.35
2019-05-17T07:51:16.516Z,23.60
2019-05-17T07:56:10.383Z,20.68
2019-05-17T08:01:04.046Z,18.32
2019-05-17T08:05:59.805Z,21.35
2019-05-17T08:10:53.059Z,19.15
2019-05-17T08:15:46.620Z,20.02
2019-05-17T08:20:40.373Z,21.17
2019-05-17T08:25:33.916Z,19.60
2019-05-17T08:30:30.292Z,20.05
2019-05-17T08:35:23.628Z,16.00
2019-05-17T08:40:19.793Z,13.90
2019-05-17T08:45:13.762Z,16.80
2019-05-17T08:50:11.310Z,16.32
2019-05-17T08:55:06.624Z,17.40
2019-05-17T09:00:00.736Z,17.17
2019-05-17T09:04:54.798Z,16.77
2019-05-17T09:09:50.118Z,13.38
2019-05-17T09:14:45.457Z,15.78
2019-05-17T09:19:39.547Z,15.65
2019-05-17T09:24:33.176Z,14.63
2019-05-17T09:29:26.991Z,17.63
2019-05-17T09:34:20.478Z,13.88
2019-05-17T09:39:15.178Z,15.98
2019-05-17T09:44:15.609Z,15.83
2019-05-17T09:49:04.341Z,12.58
2019-05-17T09:54:00.035Z,13.65
2019-05-17T09:58:53.876Z,12.93
2019-05-17T10:03:47.361Z,10.23
2019-05-17T10:08:40.906Z,10.35
2019-05-17T10:13:34.389Z,12.33
2019-05-17T10:18:29.557Z,10.70
2019-05-17T10:23:23.460Z,9.33
2019-05-17T10:28:17.861Z,8.95
2019-05-17T10:33:11.987Z,9.40
2019-05-17T10:38:06.782Z,9.38
2019-05-17T10:43:01.325Z,9.13
2019-05-17T10:47:54.871Z,10.45
2019-05-17T10:52:48.616Z,8.67
2019-05-17T10:57:42.170Z,8.20
2019-05-17T11:02:36.603Z,10.55
2019-05-17T11:07:30.348Z,11.43
2019-05-17T11:12:26.860Z,9.78
2019-05-17T11:17:20.432Z,9.80
2019-05-17T11:22:13.947Z,7.30
2019-05-17T11:27:07.748Z,8.17
2019-05-17T11:32:01.237Z,8.43
2019-05-17T11:36:54.709Z,10.23
2019-05-17T11:41:48.260Z,9.53
2019-05-17T11:46:41.930Z,7.30
2019-05-17T11:51:35.736Z,8.20
2019-05-17T11:56:29.590Z,9.88
2019-05-17T12:01:23.137Z,10.63
2019-05-17T12:06:16.906Z,8.33
2019-05-17T12:11:10.548Z,8.93
2019-05-17T12:16:04.100Z,9.10
2019-05-17T12:20:57.624Z,10.32
2019-05-17T12:25:51.222Z,9.65
2019-05-17T12:30:44.752Z,8.10
2019-05-17T12:35:38.504Z,12.05
2019-05-17T12:40:31.985Z,8.83
2019-05-17T12:45:25.534Z,8.28
2019-05-17T12:50:19.836Z,10.78
2019-05-17T12:55:14.060Z,8.80
2019-05-17T13:00:08.277Z,9.23
2019-05-17T13:05:02.019Z,9.63
2019-05-17T13:09:55.556Z,8.57
2019-05-17T13:14:49.300Z,7.72
2019-05-17T13:19:42.767Z,7.67
2019-05-17T13:24:36.264Z,10.32
2019-05-17T13:29:29.804Z,8.50
2019-05-17T13:34:23.541Z,11.33
2019-05-17T13:39:17.031Z,12.50
2019-05-17T13:44:10.579Z,9.40
2019-05-17T13:49:05.025Z,11.95
2019-05-17T13:53:58.572Z,12.33
2019-05-17T13:58:52.064Z,11.73
2019-05-17T14:03:46.571Z,10.25
2019-05-17T14:08:40.130Z,10.45
2019-05-17T14:13:33.678Z,9.93
2019-05-17T14:18:27.501Z,13.93
2019-05-17T14:23:21.048Z,12.05
2019-05-17T14:28:14.533Z,18.20
2019-05-17T14:33:08.088Z,13.90
2019-05-17T14:38:01.640Z,12.00
2019-05-17T14:42:55.222Z,13.43
2019-05-17T14:47:48.683Z,13.75
2019-05-17T14:52:42.176Z,13.50
2019-05-17T14:57:35.817Z,11.33
2019-05-17T15:02:29.376Z,13.70
2019-05-17T15:07:22.855Z,11.33
2019-05-17T15:12:27.775Z,14.00
2019-05-17T15:17:11.813Z,12.13
2019-05-17T15:22:05.723Z,16.82
2019-05-17T15:27:05.294Z,15.68
2019-05-17T15:31:55.706Z,15.80
2019-05-17T15:36:49.326Z,15.70
2019-05-17T15:41:42.956Z,16.12
2019-05-17T15:46:36.487Z,13.83
2019-05-17T15:51:30.080Z,17.07
2019-05-17T15:56:23.560Z,18.80
2019-05-17T16:01:17.318Z,15.28
2019-05-17T16:06:11.220Z,11.80
2019-05-17T16:11:04.824Z,16.95
2019-05-17T16:16:00.416Z,16.17
2019-05-17T16:20:53.945Z,14.47
2019-05-17T16:25:47.433Z,14.05
2019-05-17T16:30:41.221Z,15.08
2019-05-17T16:35:35.716Z,15.85
2019-05-17T16:40:29.263Z,15.63
2019-05-17T16:45:22.749Z,15.93
2019-05-17T16:50:16.553Z,17.07
2019-05-17T16:55:10.445Z,20.12
2019-05-17T17:00:07.936Z,15.45
2019-05-17T17:05:01.765Z,15.68
2019-05-17T17:09:55.344Z,16.27
2019-05-17T17:14:49.703Z,16.40
2019-05-17T17:19:43.179Z,16.52
2019-05-17T17:24:36.735Z,16.32
2019-05-17T17:29:30.221Z,14.47
2019-05-17T17:34:23.703Z,16.60
2019-05-17T17:39:17.180Z,14.70
2019-05-17T17:44:11.694Z,13.68
2019-05-17T17:49:05.680Z,17.62
2019-05-17T17:53:59.592Z,18.45
2019-05-17T17:58:53.998Z,16.82
2019-05-17T18:03:47.556Z,18.65
2019-05-17T18:08:42.004Z,15.08
2019-05-17T18:13:41.326Z,15.45
2019-05-17T18:18:37.533Z,14.13
2019-05-17T18:23:32.074Z,14.23
2019-05-17T18:28:25.562Z,16.05
2019-05-17T18:33:19.118Z,14.87
2019-05-17T18:38:13.792Z,13.95
2019-05-17T18:43:07.438Z,15.38
2019-05-17T18:48:01.805Z,15.72
2019-05-17T18:52:56.417Z,13.55
2019-05-17T18:57:49.959Z,15.03
2019-05-17T19:02:49.555Z,15.90
2019-05-17T19:07:46.830Z,15.88
2019-05-17T19:12:40.403Z,12.55
2019-05-17T19:17:33.955Z,14.60
2019-05-17T19:22:27.444Z,14.65
2019-05-17T19:27:20.920Z,14.98
2019-05-17T19:32:16.357Z,15.60
2019-05-17T19:37:09.844Z,14.40
2019-05-17T19:42:03.328Z,14.17
2019-05-17T19:46:56.984Z,16.43
2019-05-17T19:51:50.452Z,19.15
2019-05-17T19:56:44.007Z,14.73
2019-05-17T20:01:37.508Z,14.58
2019-05-17T20:06:31.069Z,13.93
2019-05-17T20:11:34.124Z,16.30
2019-05-17T20:16:23.604Z,16.57
2019-05-17T20:21:17.164Z,16.35
2019-05-17T20:26:10.781Z,15.68
2019-05-17T20:31:05.584Z,13.10
2019-05-17T20:36:00.113Z,19.40
2019-05-17T20:40:53.580Z,19.30
2019-05-17T20:45:49.078Z,16.77
2019-05-17T20:50:42.597Z,17.95
2019-05-17T20:55:36.091Z,14.55
2019-05-17T21:00:29.744Z,22.00
2019-05-17T21:05:23.294Z,16.27
2019-05-17T21:10:16.908Z,18.40
2019-05-17T21:15:11.176Z,19.70
2019-05-17T21:20:07.355Z,15.43
2019-05-17T21:25:00.836Z,14.65
2019-05-17T21:29:55.220Z,17.00
2019-05-17T21:34:52.017Z,22.55
2019-05-17T21:39:45.579Z,17.32
2019-05-17T21:44:39.133Z,17.15
2019-05-17T21:49:32.684Z,17.30
2019-05-17T21:54:26.190Z,16.57
2019-05-17T21:59:19.736Z,21.07
2019-05-17T22:04:13.220Z,16.30
2019-05-17T22:09:08.816Z,22.65
2019-05-17T22:14:02.602Z,15.70
2019-05-17T22:18:57.144Z,17.52
2019-05-17T22:23:50.636Z,17.57
2019-05-17T22:28:44.112Z,18.37
2019-05-17T22:33:37.590Z,22.58
2019-05-17T22:38:31.205Z,20.48
2019-05-17T22:43:24.752Z,19.45
2019-05-17T22:48:18.275Z,21.75
2019-05-17T22:53:11.807Z,23.15
2019-05-17T22:58:05.321Z,20.17
2019-05-17T23:02:59.073Z,22.13
2019-05-17T23:07:56.127Z,22.20
2019-05-17T23:12:53.632Z,18.52
2019-05-17T23:17:47.373Z,22.15
2019-05-17T23:22:41.046Z,24.05
2019-05-17T23:27:34.860Z,22.42
2019-05-17T23:32:28.599Z,23.02
2019-05-17T23:37:22.183Z,27.13
2019-05-17T23:42:15.740Z,27.40
2019-05-17T23:47:10.143Z,23.98
2019-05-17T23:52:03.776Z,30.23
2019-05-17T23:56:57.610Z,24.23
